Time;durP1;ratioP1;P1;durP2;ratioP2;P2;SDS_P1;SDS_P2;PMS_P1;PMS_P2;Temp;Humidity;BMP_temperature;BMP_pressure;BME280_temperature;BME280_humidity;BME280_pressure;Samples;Min_cycle;Max_cycle;Signal;HPM_P1;HPM_P2
2023/06/08 00:00:56;;;;;;;20.42;11.07;;;;;;;-148.88;100.00;-17125.47;4973871;28;20053;-76
2023/06/08 00:03:22;;;;;;;22.50;11.13;;;;;;;-148.88;100.00;-17125.47;4973897;28;20464;-76
2023/06/08 00:05:50;;;;;;;20.35;10.48;;;;;;;-148.88;100.00;-17125.47;4973303;28;20510;-76
2023/06/08 00:08:16;;;;;;;19.85;10.60;;;;;;;-148.88;100.00;-17125.47;4973856;28;20026;-76
2023/06/08 00:10:45;;;;;;;21.33;11.23;;;;;;;-148.88;100.00;-17125.47;4972556;28;20409;-76
2023/06/08 00:13:12;;;;;;;18.95;10.55;;;;;;;-148.88;100.00;-17125.47;4974006;28;20027;-76
2023/06/08 00:15:39;;;;;;;20.25;10.43;;;;;;;-148.88;100.00;-17125.47;4972878;28;20093;-76
2023/06/08 00:18:08;;;;;;;19.52;10.10;;;;;;;-148.88;100.00;-17125.47;4977591;28;20041;-76
2023/06/08 00:20:35;;;;;;;25.92;11.88;;;;;;;-148.88;100.00;-17125.47;4975312;28;20030;-76
2023/06/08 00:23:04;;;;;;;20.98;10.63;;;;;;;-148.88;100.00;-17125.47;4974954;28;20101;-76
2023/06/08 00:25:30;;;;;;;21.45;11.43;;;;;;;-148.88;100.00;-17125.47;4978395;28;20026;-76
2023/06/08 00:27:56;;;;;;;21.67;10.80;;;;;;;-148.88;100.00;-17125.47;4977898;28;20120;-76
2023/06/08 00:30:21;;;;;;;21.45;11.07;;;;;;;-148.88;100.00;-17125.47;4978069;28;20027;-76
2023/06/08 00:32:47;;;;;;;23.95;12.02;;;;;;;-148.88;100.00;-17125.47;4977339;28;20038;-76
2023/06/08 00:35:12;;;;;;;27.02;11.55;;;;;;;-148.88;100.00;-17125.47;4977181;28;20073;-76
2023/06/08 00:37:37;;;;;;;18.98;11.70;;;;;;;-148.88;100.00;-17125.47;4977727;28;20033;-76
2023/06/08 00:40:06;;;;;;;23.00;12.52;;;;;;;-148.88;100.00;-17125.47;4975782;28;20110;-76
2023/06/08 00:42:31;;;;;;;19.52;11.85;;;;;;;-148.88;100.00;-17125.47;4977084;28;20059;-76
2023/06/08 00:44:57;;;;;;;23.67;12.18;;;;;;;-148.88;100.00;-17125.47;4975630;28;20072;-76
2023/06/08 00:47:23;;;;;;;19.70;12.07;;;;;;;-148.88;100.00;-17125.47;4976992;28;20062;-76
2023/06/08 00:49:49;;;;;;;19.25;11.93;;;;;;;-148.88;100.00;-17125.47;4977205;28;20431;-76
2023/06/08 00:52:15;;;;;;;24.27;11.43;;;;;;;-148.88;100.00;-17125.47;4976948;28;20034;-76
2023/06/08 00:54:43;;;;;;;19.52;11.95;;;;;;;-148.88;100.00;-17125.47;4979876;28;20035;-76
2023/06/08 00:57:09;;;;;;;23.33;12.45;;;;;;;-148.88;100.00;-17125.47;4978453;28;20018;-76
2023/06/08 00:59:34;;;;;;;22.48;12.75;;;;;;;-148.88;100.00;-17125.47;4978409;28;20067;-76
2023/06/08 01:01:59;;;;;;;24.65;13.10;;;;;;;-148.88;100.00;-17125.47;4978061;28;20497;-76
2023/06/08 01:04:26;;;;;;;21.73;12.52;;;;;;;-148.88;100.00;-17125.47;4976178;28;20029;-76
2023/06/08 01:07:14;;;;;;;29.13;14.38;;;;;;;-148.88;100.00;-17125.47;4977526;28;20474;-76
2023/06/08 01:10:08;;;;;;;22.95;13.07;;;;;;;-148.88;100.00;-17125.47;4977775;28;20033;-76
2023/06/08 01:12:53;;;;;;;23.67;13.50;;;;;;;-148.88;100.00;-17125.47;4976500;28;20571;-76
2023/06/08 01:15:31;;;;;;;25.02;13.60;;;;;;;-148.88;100.00;-17125.47;4976473;28;20097;-76
2023/06/08 01:17:58;;;;;;;26.67;15.10;;;;;;;-148.88;100.00;-17125.47;4975313;28;20478;-76
2023/06/08 01:20:55;;;;;;;24.42;14.15;;;;;;;-148.88;100.00;-17125.47;4975181;28;20161;-76
2023/06/08 01:23:44;;;;;;;20.80;14.45;;;;;;;-148.88;100.00;-17125.47;4975147;28;20030;-76
2023/06/08 01:26:15;;;;;;;25.58;15.07;;;;;;;-148.88;100.00;-17125.47;4959162;28;20031;-76
2023/06/08 01:28:41;;;;;;;27.88;14.65;;;;;;;-148.88;100.00;-17125.47;4976537;28;20089;-76
2023/06/08 01:31:07;;;;;;;28.98;14.18;;;;;;;-148.88;100.00;-17125.47;4979184;28;20058;-76
2023/06/08 01:33:32;;;;;;;25.35;15.40;;;;;;;-148.88;100.00;-17125.47;4977870;28;20520;-76
2023/06/08 01:36:50;;;;;;;30.73;15.75;;;;;;;-148.88;100.00;-17125.47;4977046;28;20402;-76
2023/06/08 01:39:40;;;;;;;28.05;15.50;;;;;;;-148.88;100.00;-17125.47;4947002;28;20498;-76
2023/06/08 01:42:07;;;;;;;30.02;15.40;;;;;;;-148.88;100.00;-17125.47;4977219;28;20461;-76
2023/06/08 01:44:42;;;;;;;25.13;15.55;;;;;;;-148.88;100.00;-17125.47;4976925;28;20418;-76
2023/06/08 01:47:11;;;;;;;27.10;15.35;;;;;;;-148.88;100.00;-17125.47;4976251;28;20501;-76
2023/06/08 01:49:37;;;;;;;28.90;16.58;;;;;;;-148.88;100.00;-17125.47;4974576;28;20085;-76
2023/06/08 01:52:03;;;;;;;29.33;17.25;;;;;;;-148.88;100.00;-17125.47;4975809;28;20478;-76
2023/06/08 01:54:29;;;;;;;30.52;16.50;;;;;;;-148.88;100.00;-17125.47;4976072;28;20038;-76
2023/06/08 01:56:54;;;;;;;36.00;17.30;;;;;;;-148.88;100.00;-17125.47;4975617;28;20354;-76
2023/06/08 01:59:20;;;;;;;29.95;16.70;;;;;;;-148.88;100.00;-17125.47;4975737;28;20106;-76
2023/06/08 02:01:45;;;;;;;30.30;17.08;;;;;;;-148.88;100.00;-17125.47;4976142;28;20026;-76
2023/06/08 02:04:10;;;;;;;31.38;16.52;;;;;;;-148.88;100.00;-17125.47;4975948;28;20034;-76
2023/06/08 02:06:36;;;;;;;31.70;16.80;;;;;;;-148.88;100.00;-17125.47;4975468;28;20033;-76
2023/06/08 02:09:01;;;;;;;35.88;16.60;;;;;;;-148.88;100.00;-17125.47;4977576;28;20111;-76
2023/06/08 02:11:27;;;;;;;29.88;16.75;;;;;;;-148.88;100.00;-17125.47;4976986;28;20447;-76
2023/06/08 02:13:52;;;;;;;31.35;15.77;;;;;;;-148.88;100.00;-17125.47;4977335;28;20035;-76
2023/06/08 02:16:20;;;;;;;31.95;15.32;;;;;;;-148.88;100.00;-17125.47;4976906;28;20027;-76
2023/06/08 02:18:46;;;;;;;29.45;15.57;;;;;;;-148.88;100.00;-17125.47;4976352;28;20046;-76
2023/06/08 02:21:12;;;;;;;31.10;15.77;;;;;;;-148.88;100.00;-17125.47;4974826;28;20062;-76
2023/06/08 02:23:38;;;;;;;31.65;16.75;;;;;;;-148.88;100.00;-17125.47;4976059;28;20110;-76
2023/06/08 02:26:07;;;;;;;30.27;16.15;;;;;;;-148.88;100.00;-17125.47;4974027;28;20054;-76
2023/06/08 02:28:33;;;;;;;30.48;16.33;;;;;;;-148.88;100.00;-17125.47;4975117;28;20070;-76
2023/06/08 02:30:59;;;;;;;27.48;16.35;;;;;;;-148.88;100.00;-17125.47;4973911;28;20066;-76
2023/06/08 02:33:24;;;;;;;30.65;16.95;;;;;;;-148.88;100.00;-17125.47;4975330;28;20073;-76
2023/06/08 02:35:50;;;;;;;31.92;17.25;;;;;;;-148.88;100.00;-17125.47;4975189;28;20033;-76
2023/06/08 02:38:16;;;;;;;33.17;17.98;;;;;;;-148.88;100.00;-17125.47;4973803;28;20081;-77
2023/06/08 02:40:42;;;;;;;31.77;17.33;;;;;;;-148.88;100.00;-17125.47;4974900;28;20023;-76
2023/06/08 02:43:08;;;;;;;32.10;17.15;;;;;;;-148.88;100.00;-17125.47;4975034;28;20022;-76
2023/06/08 02:45:33;;;;;;;33.30;17.05;;;;;;;-148.88;100.00;-17125.47;4977746;28;20050;-76
2023/06/08 02:47:59;;;;;;;26.80;16.92;;;;;;;-148.88;100.00;-17125.47;4975161;28;20042;-77
2023/06/08 02:50:24;;;;;;;28.77;17.55;;;;;;;-148.88;100.00;-17125.47;4974829;28;20037;-76
2023/06/08 02:52:50;;;;;;;36.33;18.17;;;;;;;-148.88;100.00;-17125.47;4975745;28;20031;-76
2023/06/08 02:55:15;;;;;;;28.88;17.38;;;;;;;-148.88;100.00;-17125.47;4973786;28;20026;-76
2023/06/08 02:57:41;;;;;;;31.88;17.75;;;;;;;-148.88;100.00;-17125.47;4973820;28;20030;-76
2023/06/08 03:00:07;;;;;;;33.55;17.67;;;;;;;-148.88;100.00;-17125.47;4974947;28;20135;-76
2023/06/08 03:02:33;;;;;;;37.55;18.23;;;;;;;-148.88;100.00;-17125.47;4974795;28;20038;-76
2023/06/08 03:05:02;;;;;;;33.47;18.23;;;;;;;-148.88;100.00;-17125.47;4973282;28;20487;-76
2023/06/08 03:07:28;;;;;;;35.13;19.15;;;;;;;-148.88;100.00;-17125.47;4973354;28;20027;-76
2023/06/08 03:09:53;;;;;;;33.42;18.50;;;;;;;-148.88;100.00;-17125.47;4973330;28;20482;-76
2023/06/08 03:12:19;;;;;;;35.92;18.05;;;;;;;-148.88;100.00;-17125.47;4974432;28;20105;-76
2023/06/08 03:14:48;;;;;;;37.10;19.05;;;;;;;-148.88;100.00;-17125.47;4973312;28;20077;-76
2023/06/08 03:17:16;;;;;;;40.90;19.45;;;;;;;-148.88;100.00;-17125.47;4974700;28;20027;-76
2023/06/08 03:19:41;;;;;;;37.00;18.92;;;;;;;-148.88;100.00;-17125.47;4973167;28;20109;-76
2023/06/08 03:22:07;;;;;;;36.13;19.17;;;;;;;-148.88;100.00;-17125.47;4976807;28;20029;-76
2023/06/08 03:24:33;;;;;;;33.30;18.33;;;;;;;-148.88;100.00;-17125.47;4976855;28;20035;-76
2023/06/08 03:27:02;;;;;;;32.42;19.60;;;;;;;-148.88;100.00;-17125.47;4975963;28;20019;-76
2023/06/08 03:29:29;;;;;;;41.78;20.08;;;;;;;-148.88;100.00;-17125.47;4974635;28;20054;-76
2023/06/08 03:31:55;;;;;;;41.30;21.02;;;;;;;-148.88;100.00;-17125.47;4975357;28;20504;-76
2023/06/08 03:34:25;;;;;;;38.97;21.13;;;;;;;-148.88;100.00;-17125.47;4974293;28;20018;-76
2023/06/08 03:36:52;;;;;;;40.95;21.65;;;;;;;-148.88;100.00;-17125.47;4974963;28;20549;-76
2023/06/08 03:39:18;;;;;;;37.58;20.48;;;;;;;-148.88;100.00;-17125.47;4975011;28;20034;-76
2023/06/08 03:41:43;;;;;;;44.22;22.33;;;;;;;-148.88;100.00;-17125.47;4972968;28;20026;-76
2023/06/08 03:44:09;;;;;;;42.65;22.48;;;;;;;-148.88;100.00;-17125.47;4974525;28;20027;-76
2023/06/08 03:46:34;;;;;;;38.25;22.30;;;;;;;-148.88;100.00;-17125.47;4974089;28;20058;-76
2023/06/08 03:48:59;;;;;;;41.22;23.42;;;;;;;-148.88;100.00;-17125.47;4973439;28;20078;-76
2023/06/08 03:51:25;;;;;;;41.85;22.65;;;;;;;-148.88;100.00;-17125.47;4973483;28;20418;-76
2023/06/08 03:53:51;;;;;;;44.17;22.48;;;;;;;-148.88;100.00;-17125.47;4975486;28;20023;-77
2023/06/08 03:56:16;;;;;;;42.45;23.15;;;;;;;-148.88;100.00;-17125.47;4973587;28;20393;-76
2023/06/08 03:58:42;;;;;;;39.10;21.25;;;;;;;-148.88;100.00;-17125.47;4978820;28;20022;-76
2023/06/08 04:01:13;;;;;;;41.38;22.15;;;;;;;-148.88;100.00;-17125.47;4980604;28;20019;-76
2023/06/08 04:03:39;;;;;;;40.10;22.75;;;;;;;-148.88;100.00;-17125.47;4977754;28;20022;-76
2023/06/08 04:06:10;;;;;;;41.08;22.33;;;;;;;-148.88;100.00;-17125.47;4978674;28;20051;-76
2023/06/08 04:08:40;;;;;;;39.25;20.88;;;;;;;-148.88;100.00;-17125.47;4978882;28;20398;-77
2023/06/08 04:11:07;;;;;;;44.35;23.05;;;;;;;-148.88;100.00;-17125.47;4978428;28;20027;-77
2023/06/08 04:13:34;;;;;;;41.92;21.75;;;;;;;-148.88;100.00;-17125.47;4977469;28;20100;-77
2023/06/08 04:16:00;;;;;;;38.60;22.13;;;;;;;-148.88;100.00;-17125.47;4978528;28;20085;-76
2023/06/08 04:18:25;;;;;;;46.03;22.73;;;;;;;-148.88;100.00;-17125.47;4978226;28;20347;-77
2023/06/08 04:20:51;;;;;;;40.85;21.73;;;;;;;-148.88;100.00;-17125.47;4991824;23;20022;-85
2023/06/08 04:23:17;;;;;;;39.88;21.40;;;;;;;-148.88;100.00;-17125.47;4958401;29;20043;-86
2023/06/08 04:25:42;;;;;;;43.83;22.17;;;;;;;-148.88;100.00;-17125.47;4941139;29;20031;-86
2023/06/08 04:28:08;;;;;;;42.85;22.02;;;;;;;-148.88;100.00;-17125.47;4958949;29;20027;-86
2023/06/08 04:30:33;;;;;;;42.88;22.60;;;;;;;-148.88;100.00;-17125.47;4941765;29;20019;-86
2023/06/08 04:32:59;;;;;;;48.47;23.75;;;;;;;-148.88;100.00;-17125.47;4959062;29;20027;-85
2023/06/08 04:35:25;;;;;;;44.67;23.73;;;;;;;-148.88;100.00;-17125.47;4959344;29;20029;-85
2023/06/08 04:37:51;;;;;;;43.95;25.13;;;;;;;-148.88;100.00;-17125.47;4958791;29;20023;-85
2023/06/08 04:40:16;;;;;;;49.45;23.25;;;;;;;-148.88;100.00;-17125.47;4958767;29;20482;-86
2023/06/08 04:42:44;;;;;;;47.97;23.23;;;;;;;-148.88;100.00;-17125.47;4958506;29;20498;-86
2023/06/08 04:45:11;;;;;;;49.30;23.80;;;;;;;-148.88;100.00;-17125.47;4940643;29;20035;-86
2023/06/08 04:47:37;;;;;;;48.58;24.05;;;;;;;-148.88;100.00;-17125.47;4958097;29;20110;-91
2023/06/08 04:50:09;;;;;;;42.58;23.35;;;;;;;-148.88;100.00;-17125.47;4958485;29;20027;-88
2023/06/08 04:52:40;;;;;;;42.78;22.02;;;;;;;-148.88;100.00;-17125.47;4941368;29;20368;-89
2023/06/08 04:55:07;;;;;;;44.03;24.13;;;;;;;-148.88;100.00;-17125.47;4940752;29;20054;-89
2023/06/08 04:57:32;;;;;;;44.20;24.35;;;;;;;-148.88;100.00;-17125.47;4957746;29;20027;-88
2023/06/08 04:59:59;;;;;;;41.00;23.65;;;;;;;-148.88;100.00;-17125.47;4940643;29;20098;-88
2023/06/08 05:02:25;;;;;;;52.45;22.55;;;;;;;-148.88;100.00;-17125.47;4957372;29;20363;-87
2023/06/08 05:04:50;;;;;;;45.13;22.77;;;;;;;-148.88;100.00;-17125.47;4957483;29;20075;-88
2023/06/08 05:07:15;;;;;;;46.65;23.88;;;;;;;-148.88;100.00;-17125.47;4940499;29;20019;-88
2023/06/08 05:09:41;;;;;;;41.25;22.52;;;;;;;-148.88;100.00;-17125.47;4957103;28;20086;-88
2023/06/08 05:12:06;;;;;;;42.95;22.60;;;;;;;-148.88;100.00;-17125.47;4957008;29;20027;-88
2023/06/08 05:14:32;;;;;;;41.50;22.88;;;;;;;-148.88;100.00;-17125.47;4940572;29;20599;-89
2023/06/08 05:16:57;;;;;;;50.13;24.98;;;;;;;-148.88;100.00;-17125.47;4940418;29;20023;-88
2023/06/08 05:19:22;;;;;;;44.97;22.92;;;;;;;-148.88;100.00;-17125.47;4940931;29;20614;-88
2023/06/08 05:21:48;;;;;;;44.78;23.02;;;;;;;-148.88;100.00;-17125.47;4957283;28;20057;-89
2023/06/08 05:24:13;;;;;;;47.13;23.92;;;;;;;-148.88;100.00;-17125.47;4957298;29;20077;-89
2023/06/08 05:26:39;;;;;;;43.75;23.88;;;;;;;-148.88;100.00;-17125.47;4957111;29;20098;-88
2023/06/08 05:29:04;;;;;;;42.47;22.15;;;;;;;-148.88;100.00;-17125.47;4957566;29;20073;-88
2023/06/08 05:31:30;;;;;;;39.05;22.80;;;;;;;-148.88;100.00;-17125.47;4939899;29;20370;-89
2023/06/08 05:33:55;;;;;;;42.83;21.75;;;;;;;-148.88;100.00;-17125.47;4957293;29;20031;-89
2023/06/08 05:36:21;;;;;;;38.55;22.38;;;;;;;-148.88;100.00;-17125.47;4940535;29;20031;-89
2023/06/08 05:38:46;;;;;;;36.95;22.33;;;;;;;-148.88;100.00;-17125.47;4958722;29;20027;-90
2023/06/08 05:41:12;;;;;;;35.72;21.42;;;;;;;-148.88;100.00;-17125.47;4959981;29;20111;-89
2023/06/08 05:43:37;;;;;;;40.95;23.20;;;;;;;-148.88;100.00;-17125.47;4958286;29;20044;-90
2023/06/08 05:46:02;;;;;;;47.25;23.50;;;;;;;-148.88;100.00;-17125.47;4957904;29;20026;-90
2023/06/08 05:48:28;;;;;;;44.40;23.70;;;;;;;-148.88;100.00;-17125.47;4957459;29;20032;-89
2023/06/08 05:50:53;;;;;;;43.88;23.02;;;;;;;-148.88;100.00;-17125.47;4957745;29;20037;-90
2023/06/08 05:53:18;;;;;;;45.65;23.55;;;;;;;-148.88;100.00;-17125.47;4957695;29;20041;-91
2023/06/08 05:55:44;;;;;;;36.45;22.13;;;;;;;-148.88;100.00;-17125.47;4957647;29;20090;-90
2023/06/08 05:58:14;;;;;;;34.97;21.02;;;;;;;-148.88;100.00;-17125.47;4957582;29;20027;-91
2023/06/08 06:00:40;;;;;;;39.13;21.88;;;;;;;-148.88;100.00;-17125.47;4957114;29;20062;-88
2023/06/08 06:03:05;;;;;;;42.28;21.55;;;;;;;-148.88;100.00;-17125.47;4944910;29;20055;-88
2023/06/08 06:05:30;;;;;;;38.40;22.08;;;;;;;-148.88;100.00;-17125.47;4959134;29;20476;-88
2023/06/08 06:07:59;;;;;;;42.95;22.17;;;;;;;-148.88;100.00;-17125.47;4958325;29;20435;-89
2023/06/08 06:10:25;;;;;;;46.63;22.45;;;;;;;-148.88;100.00;-17125.47;4957574;29;20394;-90
2023/06/08 06:12:53;;;;;;;37.38;21.83;;;;;;;-148.88;100.00;-17125.47;4956977;29;20062;-89
2023/06/08 06:15:19;;;;;;;40.60;21.02;;;;;;;-148.88;100.00;-17125.47;4939617;29;20019;-89
2023/06/08 06:17:45;;;;;;;36.45;20.38;;;;;;;-148.88;100.00;-17125.47;4939856;29;20027;-89
2023/06/08 06:20:10;;;;;;;34.85;19.92;;;;;;;-148.88;100.00;-17125.47;4939735;29;20030;-91
2023/06/08 06:22:36;;;;;;;30.92;19.65;;;;;;;-148.88;100.00;-17125.47;4939077;29;20031;-88
2023/06/08 06:25:01;;;;;;;32.00;19.73;;;;;;;-148.88;100.00;-17125.47;4939424;29;20398;-88
2023/06/08 06:27:27;;;;;;;33.90;19.13;;;;;;;-148.88;100.00;-17125.47;4939706;29;20048;-89
2023/06/08 06:29:55;;;;;;;33.38;18.30;;;;;;;-148.88;100.00;-17125.47;4956607;29;20062;-87
2023/06/08 06:32:21;;;;;;;34.92;20.63;;;;;;;-148.88;100.00;-17125.47;4956865;29;20031;-89
2023/06/08 06:34:46;;;;;;;39.20;20.63;;;;;;;-148.88;100.00;-17125.47;4939072;29;20027;-89
2023/06/08 06:37:12;;;;;;;35.75;20.25;;;;;;;-148.88;100.00;-17125.47;4938659;29;20023;-89
2023/06/08 06:39:37;;;;;;;35.47;20.98;;;;;;;-148.88;100.00;-17125.47;4939040;29;20505;-88
2023/06/08 06:42:03;;;;;;;34.15;20.60;;;;;;;-148.88;100.00;-17125.47;4956029;29;20031;-87
2023/06/08 06:44:28;;;;;;;35.92;21.65;;;;;;;-148.88;100.00;-17125.47;4938740;29;20028;-87
2023/06/08 06:46:54;;;;;;;36.75;19.73;;;;;;;-148.88;100.00;-17125.47;4939267;29;20110;-87
2023/06/08 06:49:22;;;;;;;34.67;21.83;;;;;;;-148.88;100.00;-17125.47;4938885;29;20391;-89
2023/06/08 06:51:47;;;;;;;40.00;22.02;;;;;;;-148.88;100.00;-17125.47;4938714;29;20453;-88
2023/06/08 06:54:12;;;;;;;33.40;20.25;;;;;;;-148.88;100.00;-17125.47;4955979;29;20514;-89
2023/06/08 06:56:38;;;;;;;37.30;20.35;;;;;;;-148.88;100.00;-17125.47;4955501;29;20147;-89
2023/06/08 06:59:04;;;;;;;31.35;19.63;;;;;;;-148.88;100.00;-17125.47;4956021;29;20023;-89
2023/06/08 07:01:31;;;;;;;33.85;20.70;;;;;;;-148.88;100.00;-17125.47;4938431;29;20023;-88
2023/06/08 07:03:59;;;;;;;37.38;20.85;;;;;;;-148.88;100.00;-17125.47;4956147;29;20020;-87
2023/06/08 07:06:26;;;;;;;36.72;20.20;;;;;;;-148.88;100.00;-17125.47;4955592;29;20019;-87
2023/06/08 07:09:34;;;;;;;36.53;20.83;;;;;;;-148.88;100.00;-17125.47;4938836;29;20505;-87
2023/06/08 07:11:59;;;;;;;33.92;20.38;;;;;;;-148.88;100.00;-17125.47;4878201;29;20041;-87
2023/06/08 07:14:25;;;;;;;32.83;20.70;;;;;;;-148.88;100.00;-17125.47;4862354;29;20132;-88
2023/06/08 07:16:50;;;;;;;38.35;20.88;;;;;;;-148.88;100.00;-17125.47;4946474;29;20460;-86
2023/06/08 07:19:16;;;;;;;34.20;20.33;;;;;;;-148.88;100.00;-17125.47;4938215;29;20030;-88
2023/06/08 07:21:41;;;;;;;38.92;21.23;;;;;;;-148.88;100.00;-17125.47;4938115;29;20046;-87
2023/06/08 07:24:07;;;;;;;34.30;19.88;;;;;;;-148.88;100.00;-17125.47;4939230;29;20032;-87
2023/06/08 07:26:33;;;;;;;31.80;18.60;;;;;;;-148.88;100.00;-17125.47;4938359;29;20023;-87
2023/06/08 07:28:59;;;;;;;34.05;19.95;;;;;;;-148.88;100.00;-17125.47;4955409;29;20023;-86
2023/06/08 07:31:26;;;;;;;32.47;20.65;;;;;;;-148.88;100.00;-17125.47;4955069;29;20397;-86
2023/06/08 07:33:53;;;;;;;35.03;19.88;;;;;;;-148.88;100.00;-17125.47;4937506;29;20023;-87
2023/06/08 07:36:20;;;;;;;30.77;18.52;;;;;;;-148.88;100.00;-17125.47;4937902;29;20090;-87
2023/06/08 07:38:46;;;;;;;29.63;18.63;;;;;;;-148.88;100.00;-17125.47;4939051;29;20401;-86
2023/06/08 07:41:11;;;;;;;33.88;19.45;;;;;;;-148.88;100.00;-17125.47;4968229;23;20122;-81
2023/06/08 07:43:36;;;;;;;32.97;18.95;;;;;;;-148.88;100.00;-17125.47;4979312;28;20066;-81
2023/06/08 07:46:02;;;;;;;32.38;19.58;;;;;;;-148.88;100.00;-17125.47;4978263;28;20122;-81
2023/06/08 07:48:27;;;;;;;29.10;18.17;;;;;;;-148.88;100.00;-17125.47;4980295;28;20058;-81
2023/06/08 07:50:53;;;;;;;34.75;19.42;;;;;;;-148.88;100.00;-17125.47;4979482;28;20029;-81
2023/06/08 07:53:20;;;;;;;29.23;17.90;;;;;;;-148.88;100.00;-17125.47;4976825;28;20084;-81
2023/06/08 07:55:45;;;;;;;33.88;20.08;;;;;;;-148.88;100.00;-17125.47;4975138;28;20357;-80
2023/06/08 07:58:11;;;;;;;27.98;18.05;;;;;;;-148.88;100.00;-17125.47;4975252;28;20083;-81
2023/06/08 08:00:36;;;;;;;28.05;17.63;;;;;;;-148.88;100.00;-17125.47;4975516;28;20441;-81
2023/06/08 08:03:03;;;;;;;27.95;17.70;;;;;;;-148.88;100.00;-17125.47;4975032;28;20026;-81
2023/06/08 08:05:30;;;;;;;27.85;17.70;;;;;;;-148.88;100.00;-17125.47;4980687;28;20034;-81
2023/06/08 08:07:55;;;;;;;29.83;18.65;;;;;;;-148.88;100.00;-17125.47;4978725;28;20023;-81
2023/06/08 08:10:21;;;;;;;34.50;18.70;;;;;;;-148.88;100.00;-17125.47;4978537;28;20177;-81
2023/06/08 08:12:46;;;;;;;31.02;19.38;;;;;;;-148.88;100.00;-17125.47;4978946;28;20022;-81
2023/06/08 08:15:12;;;;;;;30.90;17.92;;;;;;;-148.88;100.00;-17125.47;4978938;28;20552;-81
2023/06/08 08:17:37;;;;;;;31.35;18.88;;;;;;;-148.88;100.00;-17125.47;4978853;28;20091;-81
2023/06/08 08:20:04;;;;;;;29.77;18.00;;;;;;;-148.88;100.00;-17125.47;4978938;28;20068;-81
2023/06/08 08:22:31;;;;;;;28.08;17.23;;;;;;;-148.88;100.00;-17125.47;4979283;28;20022;-82
2023/06/08 08:24:57;;;;;;;29.83;18.05;;;;;;;-148.88;100.00;-17125.47;4979638;28;20018;-80
2023/06/08 08:27:22;;;;;;;25.80;16.58;;;;;;;-148.88;100.00;-17125.47;4977082;28;20042;-81
2023/06/08 08:29:47;;;;;;;27.98;16.98;;;;;;;-148.88;100.00;-17125.47;4977455;28;20077;-81
2023/06/08 08:32:13;;;;;;;28.90;15.60;;;;;;;-148.88;100.00;-17125.47;4976831;28;20022;-81
2023/06/08 08:34:38;;;;;;;27.38;17.88;;;;;;;-148.88;100.00;-17125.47;4977118;28;20503;-81
2023/06/08 08:37:04;;;;;;;24.48;15.35;;;;;;;-148.88;100.00;-17125.47;4977995;28;20388;-81
2023/06/08 08:39:29;;;;;;;25.48;15.57;;;;;;;-148.88;100.00;-17125.47;4975249;28;20022;-81
2023/06/08 08:42:01;;;;;;;31.25;17.67;;;;;;;-148.88;100.00;-17125.47;4977412;28;20063;-81
2023/06/08 08:44:26;;;;;;;31.98;18.08;;;;;;;-148.88;100.00;-17125.47;4979037;28;20042;-82
2023/06/08 08:46:53;;;;;;;24.63;17.70;;;;;;;-148.88;100.00;-17125.47;4981973;28;20023;-81
2023/06/08 08:49:21;;;;;;;25.70;15.32;;;;;;;-148.88;100.00;-17125.47;4980805;28;20027;-81
2023/06/08 08:51:52;;;;;;;20.63;14.52;;;;;;;-148.88;100.00;-17125.47;4981865;28;20444;-81
2023/06/08 08:54:18;;;;;;;26.80;15.02;;;;;;;-148.88;100.00;-17125.47;4981360;28;20033;-82
2023/06/08 08:56:44;;;;;;;24.85;15.52;;;;;;;-148.88;100.00;-17125.47;4981889;28;20019;-81
2023/06/08 08:59:10;;;;;;;21.63;15.07;;;;;;;-148.88;100.00;-17125.47;4981759;28;20027;-81
2023/06/08 09:01:39;;;;;;;24.42;14.55;;;;;;;-148.88;100.00;-17125.47;4982576;28;20031;-81
2023/06/08 09:04:05;;;;;;;25.52;15.75;;;;;;;-148.88;100.00;-17125.47;4979883;28;20031;-81
2023/06/08 09:06:30;;;;;;;27.33;15.30;;;;;;;-148.88;100.00;-17125.47;4978579;28;20034;-81
2023/06/08 09:08:56;;;;;;;23.58;15.80;;;;;;;-148.88;100.00;-17125.47;4978286;28;20046;-81
2023/06/08 09:11:22;;;;;;;27.13;15.45;;;;;;;-148.88;98.73;-17125.47;4977637;28;20034;-81
2023/06/08 09:13:48;;;;;;;23.98;14.95;;;;;;;-148.88;98.81;-17125.47;4977743;28;20425;-81
2023/06/08 09:16:22;;;;;;;24.00;15.55;;;;;;;-148.88;98.99;-17125.47;4976177;28;20026;-81
2023/06/08 09:19:04;;;;;;;24.85;15.63;;;;;;;-148.88;100.00;-17125.47;4980175;28;20026;-82
2023/06/08 09:21:29;;;;;;;24.65;15.55;;;;;;;-148.88;100.00;-17125.47;4981510;28;20042;-81
2023/06/08 09:27:27;;;;;;;26.98;15.63;;;;;;;-148.88;98.28;-17125.47;4981914;28;20053;-82
2023/06/08 09:29:52;;;;;;;26.83;16.50;;;;;;;-148.88;100.00;-17125.47;4982141;28;20045;-82
2023/06/08 09:32:25;;;;;;;26.65;15.85;;;;;;;-148.88;100.00;-17125.47;4981692;28;20496;-82
2023/06/08 09:35:01;;;;;;;25.70;16.67;;;;;;;-148.88;100.00;-17125.47;4974929;28;20023;-82
2023/06/08 09:37:36;;;;;;;25.35;15.93;;;;;;;-148.88;98.41;-17125.47;4960966;29;20027;-82
2023/06/08 09:40:08;;;;;;;20.27;14.88;;;;;;;-148.88;99.13;-17125.47;4966629;28;20473;-82
2023/06/08 09:42:42;;;;;;;24.00;16.00;;;;;;;-148.88;94.02;-17125.47;4977152;28;20162;-81
2023/06/08 09:45:08;;;;;;;;;;;;;;;-148.88;95.06;-17125.47;4978211;28;20054;-81
2023/06/08 09:47:34;;;;;;;20.33;14.70;;;;;;;-148.88;94.49;-17125.47;4977327;28;19910;-81
2023/06/08 09:50:00;;;;;;;19.35;13.85;;;;;;;-148.88;91.81;-17125.47;4977203;28;20114;-81
2023/06/08 09:52:25;;;;;;;21.92;14.10;;;;;;;-148.88;91.39;-17125.47;4977383;28;20048;-81
2023/06/08 09:54:52;;;;;;;23.05;14.85;;;;;;;-148.88;93.60;-17125.47;4980366;28;20042;-82
2023/06/08 09:57:20;;;;;;;18.85;14.05;;;;;;;-148.88;94.83;-17125.47;4980931;28;20061;-81
2023/06/08 10:00:08;;;;;;;22.38;14.15;;;;;;;-148.88;92.46;-17125.47;4981222;28;20078;-79
2023/06/08 10:02:40;;;;;;;24.17;15.23;;;;;;;-148.88;93.50;-17125.47;4981056;28;20393;-80
2023/06/08 10:05:13;;;;;;;20.83;14.88;;;;;;;-148.88;91.74;-17125.47;4981188;28;20023;-80
2023/06/08 10:07:43;;;;;;;19.48;12.75;;;;;;;-148.88;90.88;-17125.47;4980576;28;20050;-80
2023/06/08 10:10:28;;;;;;;20.70;13.02;;;;;;;-148.88;90.51;-17125.47;4980841;28;20035;-80
2023/06/08 10:12:56;;;;;;;22.02;13.32;;;;;;;-148.88;87.28;-17125.47;4979295;28;20113;-80
2023/06/08 10:15:22;;;;;;;19.92;13.52;;;;;;;-148.88;92.63;-17125.47;4979510;28;20024;-80
2023/06/08 10:17:49;;;;;;;19.75;13.93;;;;;;;-148.88;84.45;-17125.47;4980168;28;20077;-80
2023/06/08 10:20:16;;;;;;;18.95;13.48;;;;;;;-148.88;87.49;-17125.47;4978495;28;20054;-81
2023/06/08 10:22:42;;;;;;;21.27;13.80;;;;;;;-148.88;85.97;-17125.47;4979563;28;20027;-82
2023/06/08 10:25:09;;;;;;;16.88;12.48;;;;;;;-148.88;86.61;-17125.47;4976298;28;20101;-81
2023/06/08 10:27:35;;;;;;;19.23;13.48;;;;;;;-148.88;84.19;-17125.47;4976099;28;20195;-82
2023/06/08 10:30:05;;;;;;;20.58;13.73;;;;;;;-148.88;84.58;-17125.47;4974619;28;20065;-82
2023/06/08 10:32:39;;;;;;;20.63;13.55;;;;;;;-148.88;84.57;-17125.47;4978793;28;20022;-82
2023/06/08 10:35:06;;;;;;;18.05;13.13;;;;;;;-148.88;85.97;-17125.47;4979669;28;20026;-83
2023/06/08 10:37:33;;;;;;;18.75;13.27;;;;;;;-148.88;81.07;-17125.47;4979973;28;20026;-82
2023/06/08 10:40:00;;;;;;;21.30;14.00;;;;;;;-148.88;80.02;-17125.47;4980530;28;20023;-82
2023/06/08 10:46:30;;;;;;;18.45;12.10;;;;;;;-148.88;79.68;-17125.47;4980250;28;20073;-82
2023/06/08 10:49:01;;;;;;;18.42;11.63;;;;;;;-148.88;79.47;-17125.47;4979853;28;20134;-80
2023/06/08 10:51:27;;;;;;;21.77;12.90;;;;;;;-148.88;79.39;-17125.47;4980944;28;20085;-80
2023/06/08 10:53:57;;;;;;;17.92;11.00;;;;;;;-148.88;79.45;-17125.47;4979021;28;20026;-80
2023/06/08 10:56:30;;;;;;;16.58;11.82;;;;;;;-148.88;75.45;-17125.47;4976535;28;20378;-80